< < Back
Terminal Aerodrome Forecast


Current Version              Previous Versions:   1  2  3  4  5  6  7  8  9  

Terminal Aerodrome Forecast

913
FTUS42 KFFC 251738
TAFAHN
TAF
KAHN 251738Z 2518/2618 11004KT P6SM FEW050
     FM260200 13004KT P6SM FEW250
     FM260600 00000KT P6SM BKN080
     FM261000 10004KT P6SM SCT012 BKN080
     FM261400 10006KT P6SM FEW035 SCT080
     FM261700 15004KT P6SM SCT045=



Latest METAR

741
SAUS70 KWBC 251900 RRA
MTRAHN
METAR KAHN 251851Z 04004KT 10SM FEW065 34/18 A3006 RMK AO2 SLP171
T03390178


USA.gov is the U.S. government's official web portal to all federal, state and local government web resources and services.